Ana Sayfa
METAR-TAF:

METAR-TAF

Havaalanları :

Kutais, Gürcistan

Kopitnari Havalimanı

Enlem: 42-10-35N, Boylam: 042-28-57E, yükseklik: 68 m

Güncel hava durumu gözlemi

Rapor saat 08:00 UTC de 39 dakika önce yapıldı.
Rüzgar doğudan 13 kt
Sıcaklık 14°C
Nem 47%
Basınç 1011 hPa
Görüş mesafesi 10 km veya daha fazla
1500 m altında bulut yok ve kümülonimbus yok

METAR: UGKO 230800Z 08013KT CAVOK 14/03 Q1011 R07/09//70 NOSIG

Saat: 12:39 (08:39 UTC)

Tahmin

Rapor saat 05:00 UTC de 3 saat ve 39 dakika önce yapıldı.
Ayın 23'si saat 06 UTC'den ayın 24'si saat 06 UTC'ye kadar geçerli Tahmin
Rüzgar değişken yönden 2 kt
Görüş mesafesi 10 km veya daha fazla
1500 m altında bulut yok ve kümülonimbus yok
Geçici
ayın 23'si saat 06 UTC'den ayın 23'si saat 12 UTC'ye kadar
Rüzgar doğudan 12 kt

TAF: UGKO 230500Z 2306/2406 VRB02KT CAVOK TX19/2312Z TN06/2403Z TEMPO 2306/2312 08012KT

4.000'den fazla havaalanı için hava durumu gözlemleri ve tahminleri (METAR ve TAF raporları).

Kullanılabilir istasyonlar harita üzerinde sarı ve kırmızı noktalarla gösterilir.

İstasyonun adını görmek için fareyi noktanın üzerinde gezdirin.

Sonrasında hava gözlem ve tahminlerini görmek için tıklayın.

Haritayı değiştirmek için: yaklaştırmak için siyah artı işaretli yeşil düğmeye ve uzaklaştırmak için de eksi işaretli düğmeye hızla tıklayın; bitişik haritalar için yeşil okları kullanın.


METAR-TAF: